createdAt,value
2022-11-20T00:02:49.778Z,11.90
2022-11-20T00:05:44.663Z,12.40
2022-11-20T00:08:39.523Z,12.90
2022-11-20T00:11:35.372Z,11.40
2022-11-20T00:14:30.109Z,11.90
2022-11-20T00:17:24.981Z,12.00
2022-11-20T00:20:20.723Z,11.60
2022-11-20T00:23:15.505Z,11.40
2022-11-20T00:26:12.095Z,11.20
2022-11-20T00:29:07.271Z,11.60
2022-11-20T00:32:02.170Z,11.70
2022-11-20T00:34:56.899Z,13.20
2022-11-20T00:37:51.789Z,10.80
2022-11-20T00:40:49.869Z,12.10
2022-11-20T00:43:48.622Z,10.80
2022-11-20T00:46:43.425Z,10.10
2022-11-20T00:49:38.163Z,11.10
2022-11-20T00:52:32.987Z,10.80
2022-11-20T00:55:27.774Z,11.10
2022-11-20T00:58:22.699Z,10.90
2022-11-20T01:01:19.444Z,10.50
2022-11-20T01:04:14.562Z,11.00
2022-11-20T01:07:09.425Z,10.70
2022-11-20T01:10:04.564Z,10.80
2022-11-20T01:13:13.060Z,11.30
2022-11-20T01:16:11.104Z,10.30
2022-11-20T01:19:08.199Z,10.30
2022-11-20T01:22:02.926Z,10.10
2022-11-20T01:24:57.849Z,10.60
2022-11-20T01:27:52.587Z,10.50
2022-11-20T01:30:47.408Z,11.10
2022-11-20T01:33:42.423Z,10.10
2022-11-20T01:36:37.901Z,9.30
2022-11-20T01:39:32.903Z,10.50
2022-11-20T01:42:45.540Z,10.20
2022-11-20T01:46:17.531Z,10.10
2022-11-20T01:49:17.032Z,10.20
2022-11-20T01:52:17.228Z,10.20
2022-11-20T01:55:15.605Z,9.50
2022-11-20T01:58:10.302Z,10.50
2022-11-20T02:01:05.791Z,10.30
2022-11-20T02:04:00.668Z,10.10
2022-11-20T02:06:57.664Z,10.70
2022-11-20T02:09:57.398Z,10.80
2022-11-20T02:13:11.312Z,10.20
2022-11-20T02:16:06.595Z,10.40
2022-11-20T02:19:03.560Z,11.00
2022-11-20T02:22:04.659Z,9.90
2022-11-20T02:24:59.443Z,9.90
2022-11-20T02:27:54.194Z,10.40
2022-11-20T02:30:48.931Z,10.60
2022-11-20T02:33:43.765Z,11.20
2022-11-20T02:36:38.920Z,11.30
2022-11-20T02:39:33.723Z,11.00
2022-11-20T02:42:28.435Z,11.30
2022-11-20T02:45:23.760Z,11.50
2022-11-20T02:48:18.505Z,10.60
2022-11-20T02:51:13.572Z,10.90
2022-11-20T02:54:08.646Z,12.30
2022-11-20T02:57:03.442Z,11.40
2022-11-20T02:59:58.155Z,12.30
2022-11-20T03:02:52.948Z,11.90
2022-11-20T03:05:47.724Z,11.90
2022-11-20T03:08:42.527Z,12.40
2022-11-20T03:11:37.420Z,12.70
2022-11-20T03:14:32.399Z,11.80
2022-11-20T03:17:27.276Z,12.90
2022-11-20T03:20:22.308Z,13.40
2022-11-20T03:23:17.066Z,12.40
2022-11-20T03:26:17.702Z,13.40
2022-11-20T03:29:12.445Z,12.80
2022-11-20T03:32:07.612Z,14.00
2022-11-20T03:35:02.346Z,14.00
2022-11-20T03:37:57.032Z,14.00
2022-11-20T03:40:51.702Z,13.20
2022-11-20T03:43:48.836Z,13.70
2022-11-20T03:46:43.966Z,13.50
2022-11-20T03:49:38.713Z,13.80
2022-11-20T03:52:33.769Z,14.10
2022-11-20T03:55:28.588Z,13.70
2022-11-20T03:58:23.240Z,13.40
2022-11-20T04:01:19.998Z,14.40
2022-11-20T04:04:14.871Z,14.90
2022-11-20T04:07:10.196Z,14.10
2022-11-20T04:10:05.089Z,16.20
2022-11-20T04:13:00.104Z,14.80
2022-11-20T04:15:55.064Z,15.00
2022-11-20T04:18:53.374Z,14.30
2022-11-20T04:21:48.262Z,15.60
2022-11-20T04:24:43.448Z,16.10
2022-11-20T04:27:38.275Z,16.30
2022-11-20T04:30:32.985Z,14.80
2022-11-20T04:33:30.045Z,16.60
2022-11-20T04:36:28.912Z,16.00
2022-11-20T04:42:32.628Z,14.80
2022-11-20T04:45:27.499Z,16.60
2022-11-20T04:48:22.653Z,16.20
2022-11-20T04:51:17.440Z,15.80
2022-11-20T04:54:12.277Z,15.80
2022-11-20T04:57:11.435Z,16.00
2022-11-20T05:00:12.451Z,14.20
2022-11-20T05:03:07.439Z,15.20
2022-11-20T05:06:03.677Z,16.60
2022-11-20T05:08:58.544Z,15.40
2022-11-20T05:11:53.316Z,16.90
2022-11-20T05:14:48.344Z,16.20
2022-11-20T05:17:43.539Z,17.10
2022-11-20T05:20:38.515Z,16.60
2022-11-20T05:23:34.225Z,15.90
2022-11-20T05:26:29.151Z,17.80
2022-11-20T05:29:23.971Z,16.70
2022-11-20T05:32:18.861Z,16.20
2022-11-20T05:35:14.267Z,17.20
2022-11-20T05:38:09.429Z,16.20
2022-11-20T05:41:11.007Z,16.60
2022-11-20T05:44:05.950Z,17.20
2022-11-20T05:47:00.581Z,17.50
2022-11-20T05:49:55.787Z,17.40
2022-11-20T05:52:50.679Z,16.70
2022-11-20T05:55:45.703Z,16.60
2022-11-20T05:58:40.580Z,17.90
2022-11-20T06:01:36.975Z,18.20
2022-11-20T06:04:31.648Z,16.90
2022-11-20T06:07:26.415Z,17.40
2022-11-20T06:10:21.749Z,17.40
2022-11-20T06:13:16.516Z,18.80
2022-11-20T06:16:12.188Z,20.70
2022-11-20T06:19:07.109Z,17.70
2022-11-20T06:22:01.799Z,18.80
2022-11-20T06:24:56.550Z,17.00
2022-11-20T06:27:51.406Z,17.40
2022-11-20T06:30:50.300Z,18.20
2022-11-20T06:33:45.502Z,18.40
2022-11-20T06:36:40.283Z,17.80
2022-11-20T06:39:35.112Z,18.80
2022-11-20T06:42:29.956Z,18.60
2022-11-20T06:45:24.725Z,18.80
2022-11-20T06:48:19.469Z,19.50
2022-11-20T06:51:14.279Z,18.60
2022-11-20T06:54:09.680Z,19.10
2022-11-20T06:57:04.976Z,20.40
2022-11-20T06:59:59.910Z,19.80
2022-11-20T07:02:54.646Z,20.40
2022-11-20T07:05:49.435Z,20.80
2022-11-20T07:08:44.354Z,21.40
2022-11-20T07:11:39.130Z,21.60
2022-11-20T07:14:33.828Z,22.40
2022-11-20T07:17:28.566Z,22.10
2022-11-20T07:24:20.533Z,23.70
2022-11-20T07:27:11.053Z,23.40
2022-11-20T07:30:01.530Z,23.80
2022-11-20T07:32:54.774Z,21.40
2022-11-20T07:35:45.784Z,24.30
2022-11-20T07:38:36.307Z,22.80
2022-11-20T07:41:28.077Z,23.30
2022-11-20T07:44:19.567Z,22.60
2022-11-20T07:47:10.487Z,23.50
2022-11-20T07:50:01.101Z,24.30
2022-11-20T07:52:52.652Z,22.20
2022-11-20T07:55:43.203Z,22.90
2022-11-20T07:58:34.845Z,22.10
2022-11-20T08:01:25.748Z,22.60
2022-11-20T08:04:16.659Z,22.40
2022-11-20T08:07:07.402Z,22.90
2022-11-20T08:09:58.530Z,22.10
2022-11-20T08:13:08.565Z,22.10
2022-11-20T08:15:59.501Z,23.00
2022-11-20T08:18:50.343Z,20.40
2022-11-20T08:21:41.167Z,20.50
2022-11-20T08:24:31.770Z,19.20
2022-11-20T08:27:22.365Z,20.50
2022-11-20T08:30:16.328Z,21.20
2022-11-20T08:33:08.927Z,22.40
2022-11-20T08:36:02.822Z,21.80
2022-11-20T08:38:54.842Z,20.40
2022-11-20T08:41:45.527Z,18.40
2022-11-20T08:44:36.253Z,21.90
2022-11-20T08:47:26.939Z,23.40
2022-11-20T08:50:18.249Z,21.10
2022-11-20T08:53:09.009Z,23.80
2022-11-20T08:56:00.487Z,20.90
2022-11-20T08:59:20.254Z,23.00
2022-11-20T09:02:03.956Z,21.00
2022-11-20T09:04:54.589Z,19.20
2022-11-20T09:07:45.649Z,19.60
2022-11-20T09:10:40.105Z,21.30
2022-11-20T09:13:31.243Z,21.40
2022-11-20T09:16:21.988Z,19.40
2022-11-20T09:19:34.619Z,20.00
2022-11-20T09:22:23.487Z,21.00
2022-11-20T09:25:14.512Z,19.70
2022-11-20T09:28:05.537Z,20.90
2022-11-20T09:30:56.277Z,19.80
2022-11-20T09:33:46.868Z,20.30
2022-11-20T09:36:37.849Z,19.40
2022-11-20T09:39:28.558Z,19.80
2022-11-20T09:42:35.817Z,18.10
2022-11-20T09:45:35.198Z,18.90
2022-11-20T09:49:00.130Z,17.30
2022-11-20T09:51:58.517Z,16.70
2022-11-20T09:54:49.238Z,16.50
2022-11-20T09:57:42.078Z,17.30
2022-11-20T10:00:33.254Z,18.50
2022-11-20T10:03:27.769Z,16.40
2022-11-20T10:06:22.273Z,17.10
2022-11-20T10:09:24.368Z,16.70
2022-11-20T10:12:19.047Z,16.30
2022-11-20T10:15:18.514Z,16.30
2022-11-20T10:18:24.384Z,15.30
2022-11-20T10:21:21.145Z,15.80
2022-11-20T10:24:29.049Z,17.40
2022-11-20T10:27:43.412Z,17.00
2022-11-20T10:30:36.195Z,16.00
2022-11-20T10:33:29.082Z,17.30
2022-11-20T10:36:28.376Z,15.60
2022-11-20T10:39:22.317Z,15.20
2022-11-20T10:42:15.579Z,15.60
2022-11-20T10:45:16.666Z,14.80
2022-11-20T10:48:17.140Z,15.30
2022-11-20T10:51:16.576Z,15.30
2022-11-20T10:54:18.102Z,15.10
2022-11-20T10:57:15.726Z,15.10
2022-11-20T11:00:09.377Z,14.60
2022-11-20T11:03:03.386Z,16.90
2022-11-20T11:05:56.597Z,15.30
2022-11-20T11:08:47.810Z,15.10
2022-11-20T11:11:38.639Z,15.80
2022-11-20T11:14:29.408Z,14.20
2022-11-20T11:17:30.962Z,14.10
2022-11-20T11:20:22.695Z,13.80
2022-11-20T11:23:31.719Z,14.60
2022-11-20T11:26:24.038Z,16.00
2022-11-20T11:29:21.185Z,13.40
2022-11-20T11:32:15.915Z,14.50
2022-11-20T11:35:19.040Z,13.40
2022-11-20T11:38:15.376Z,14.80
2022-11-20T11:41:06.171Z,13.40
2022-11-20T11:44:19.579Z,14.00
2022-11-20T11:47:12.547Z,14.30
2022-11-20T11:50:17.851Z,12.60
2022-11-20T11:53:14.228Z,14.50
2022-11-20T11:56:08.905Z,13.50
2022-11-20T11:59:01.114Z,13.20
2022-11-20T12:01:55.586Z,13.30
2022-11-20T12:04:50.558Z,14.00
2022-11-20T12:07:47.550Z,14.30
2022-11-20T12:10:47.609Z,13.70
2022-11-20T12:13:45.603Z,14.30
2022-11-20T12:16:38.998Z,13.20
2022-11-20T12:19:29.606Z,13.90
2022-11-20T12:22:29.371Z,13.90
2022-11-20T12:25:22.786Z,15.60
2022-11-20T12:28:40.153Z,14.30
2022-11-20T12:31:46.948Z,15.50
2022-11-20T12:34:51.881Z,14.70
2022-11-20T12:37:49.117Z,14.10
2022-11-20T12:40:44.037Z,14.60
2022-11-20T12:43:55.220Z,16.70
2022-11-20T12:46:47.364Z,16.20
2022-11-20T12:49:39.976Z,16.60
2022-11-20T12:52:42.205Z,16.80
2022-11-20T12:55:45.231Z,16.30
2022-11-20T12:58:40.789Z,16.40
2022-11-20T13:01:43.033Z,16.70
2022-11-20T13:05:10.057Z,15.60
2022-11-20T13:08:00.604Z,16.50
2022-11-20T13:10:55.427Z,15.50
2022-11-20T13:14:05.721Z,15.50
2022-11-20T13:17:03.421Z,15.70
2022-11-20T13:19:59.144Z,15.00
2022-11-20T13:22:52.145Z,15.80
2022-11-20T13:25:42.818Z,15.70
2022-11-20T13:28:33.876Z,15.60
2022-11-20T13:31:35.550Z,14.70
2022-11-20T13:34:27.855Z,14.90
2022-11-20T13:37:29.871Z,14.10
2022-11-20T13:40:25.080Z,16.40
2022-11-20T13:43:35.866Z,15.40
2022-11-20T13:46:37.389Z,14.80
2022-11-20T13:49:32.559Z,17.00
2022-11-20T13:52:46.231Z,15.00
2022-11-20T13:55:39.106Z,15.90
2022-11-20T13:58:41.482Z,17.60
2022-11-20T14:01:32.672Z,15.10
2022-11-20T14:04:28.445Z,16.50
2022-11-20T14:07:19.836Z,18.10
2022-11-20T14:10:27.078Z,17.50
2022-11-20T14:13:22.424Z,17.80
2022-11-20T14:16:13.380Z,17.00
2022-11-20T14:19:30.647Z,18.60
2022-11-20T14:22:23.064Z,18.80
2022-11-20T14:25:23.768Z,19.30
2022-11-20T14:28:21.892Z,17.60
2022-11-20T14:31:18.913Z,18.30
2022-11-20T14:34:16.519Z,18.00
2022-11-20T14:37:16.394Z,17.80
2022-11-20T14:40:29.325Z,18.20
2022-11-20T14:43:23.797Z,19.90
2022-11-20T14:46:14.818Z,18.10
2022-11-20T14:49:05.752Z,18.90
2022-11-20T14:52:03.066Z,20.70
2022-11-20T14:54:54.971Z,18.00
2022-11-20T14:57:46.178Z,17.30
2022-11-20T15:00:37.659Z,18.80
2022-11-20T15:03:35.444Z,17.00
2022-11-20T15:06:29.849Z,17.10
2022-11-20T15:09:20.496Z,17.60
2022-11-20T15:12:19.100Z,18.40
2022-11-20T15:15:12.610Z,19.30
2022-11-20T15:18:03.266Z,21.20
2022-11-20T15:20:53.856Z,22.30
2022-11-20T15:23:44.356Z,27.50
2022-11-20T15:26:34.887Z,27.00
2022-11-20T15:29:25.474Z,27.50
2022-11-20T15:32:16.046Z,24.50
2022-11-20T15:35:09.275Z,26.80
2022-11-20T15:37:59.959Z,27.00
2022-11-20T15:40:50.629Z,25.50
2022-11-20T15:43:41.303Z,24.60
2022-11-20T15:46:37.927Z,23.00
2022-11-20T15:49:28.745Z,23.70
2022-11-20T15:52:19.437Z,24.00
2022-11-20T15:55:12.920Z,26.20
2022-11-20T15:58:03.546Z,23.20
2022-11-20T16:00:54.293Z,22.50
2022-11-20T16:03:45.231Z,22.40
2022-11-20T16:06:35.801Z,23.80
2022-11-20T16:09:26.425Z,20.80
2022-11-20T16:12:37.060Z,20.70
2022-11-20T16:15:46.063Z,19.00
2022-11-20T16:18:36.662Z,21.10
2022-11-20T16:21:31.289Z,21.90
2022-11-20T16:24:22.497Z,20.10
2022-11-20T16:27:13.611Z,18.90
2022-11-20T16:30:12.108Z,19.00
2022-11-20T16:33:02.976Z,19.10
2022-11-20T16:35:53.630Z,20.80
2022-11-20T16:38:44.206Z,20.10
2022-11-20T16:41:35.999Z,18.50
2022-11-20T16:44:27.059Z,19.10
2022-11-20T16:47:17.925Z,22.10
2022-11-20T16:50:10.864Z,17.80
2022-11-20T16:53:01.579Z,18.30
2022-11-20T16:55:52.417Z,17.50
2022-11-20T16:58:43.038Z,17.80
2022-11-20T17:01:35.518Z,16.30
2022-11-20T17:04:26.695Z,17.60
2022-11-20T17:07:17.700Z,16.40
2022-11-20T17:10:10.121Z,15.50
2022-11-20T17:13:00.736Z,16.40
2022-11-20T17:15:51.864Z,15.70
2022-11-20T17:18:42.443Z,17.10
2022-11-20T17:21:35.457Z,16.70
2022-11-20T17:24:31.652Z,17.20
2022-11-20T17:27:22.773Z,15.60
2022-11-20T17:30:14.556Z,15.90
2022-11-20T17:33:05.298Z,16.40
2022-11-20T17:35:56.515Z,16.40
2022-11-20T17:38:47.376Z,17.00
2022-11-20T17:41:37.980Z,16.50
2022-11-20T17:44:28.584Z,16.10
2022-11-20T17:47:19.300Z,16.90
2022-11-20T17:50:11.519Z,17.20
2022-11-20T17:53:02.540Z,15.40
2022-11-20T17:56:16.147Z,16.30
2022-11-20T17:59:07.564Z,15.20
2022-11-20T18:02:03.290Z,17.60
2022-11-20T18:04:54.773Z,16.30
2022-11-20T18:07:45.570Z,15.70
2022-11-20T18:10:36.784Z,15.50
2022-11-20T18:13:48.067Z,14.70
2022-11-20T18:16:42.305Z,14.90
2022-11-20T18:19:38.741Z,15.20
2022-11-20T18:22:31.723Z,15.00
2022-11-20T18:25:22.346Z,15.70
2022-11-20T18:28:13.386Z,14.80
2022-11-20T18:31:07.479Z,15.80
2022-11-20T18:33:58.472Z,16.90
2022-11-20T18:36:49.120Z,16.20
2022-11-20T18:39:39.681Z,15.40
2022-11-20T18:42:49.249Z,15.40
2022-11-20T18:45:39.816Z,17.50
2022-11-20T18:48:31.808Z,16.50
2022-11-20T18:51:22.546Z,15.50
2022-11-20T18:54:13.295Z,14.80
2022-11-20T18:57:05.039Z,15.80
2022-11-20T18:59:55.766Z,15.30
2022-11-20T19:02:47.969Z,15.00
2022-11-20T19:05:39.515Z,16.80
2022-11-20T19:08:30.147Z,14.90
2022-11-20T19:11:20.785Z,15.90
2022-11-20T19:14:11.808Z,15.70
2022-11-20T19:17:02.414Z,17.10
2022-11-20T19:19:54.311Z,15.30
2022-11-20T19:22:45.004Z,15.90
2022-11-20T19:25:38.337Z,16.70
2022-11-20T19:28:31.037Z,16.10
2022-11-20T19:31:24.705Z,16.00
2022-11-20T19:34:16.201Z,16.50
2022-11-20T19:37:06.804Z,16.40
2022-11-20T19:39:59.040Z,15.60
2022-11-20T19:42:49.730Z,16.60
2022-11-20T19:45:40.777Z,18.20
2022-11-20T19:48:32.714Z,16.70
2022-11-20T19:51:26.721Z,18.50
2022-11-20T19:54:18.141Z,18.40
2022-11-20T19:57:08.818Z,18.40
2022-11-20T19:59:59.467Z,19.50
2022-11-20T20:02:50.011Z,19.40
2022-11-20T20:05:41.023Z,18.10
2022-11-20T20:08:31.950Z,19.50
2022-11-20T20:11:24.009Z,20.40
2022-11-20T20:14:16.042Z,20.20
2022-11-20T20:17:06.832Z,20.00
2022-11-20T20:19:57.655Z,20.00
2022-11-20T20:22:48.294Z,20.00
2022-11-20T20:25:38.840Z,22.40
2022-11-20T20:28:30.326Z,20.80
2022-11-20T20:31:23.104Z,19.50
2022-11-20T20:34:13.839Z,19.70
2022-11-20T20:37:04.849Z,20.50
2022-11-20T20:39:55.525Z,21.00
2022-11-20T20:42:46.200Z,21.30
2022-11-20T20:45:37.074Z,20.50
2022-11-20T20:48:28.398Z,21.00
2022-11-20T20:51:18.948Z,22.50
2022-11-20T20:54:09.567Z,23.50
2022-11-20T20:57:00.114Z,22.10
2022-11-20T20:59:51.956Z,22.60
2022-11-20T21:02:43.065Z,22.30
2022-11-20T21:05:33.824Z,22.50
2022-11-20T21:08:24.935Z,21.80
2022-11-20T21:11:17.505Z,23.60
2022-11-20T21:14:08.080Z,22.60
2022-11-20T21:16:59.097Z,22.50
2022-11-20T21:19:49.702Z,24.30
2022-11-20T21:22:40.434Z,23.20
2022-11-20T21:25:31.485Z,22.90
2022-11-20T21:28:22.490Z,22.00
2022-11-20T21:31:14.716Z,23.20
2022-11-20T21:34:06.737Z,22.60
2022-11-20T21:36:57.976Z,24.30
2022-11-20T21:39:51.297Z,24.30
2022-11-20T21:42:41.904Z,24.30
2022-11-20T21:45:32.638Z,25.80
2022-11-20T21:48:23.406Z,25.20
2022-11-20T21:51:15.178Z,25.20
2022-11-20T21:54:05.967Z,24.80
2022-11-20T21:56:56.887Z,25.80
2022-11-20T21:59:47.537Z,24.30
2022-11-20T22:02:40.016Z,28.10
2022-11-20T22:05:30.684Z,25.00
2022-11-20T22:08:21.364Z,28.30
2022-11-20T22:11:13.936Z,29.10
2022-11-20T22:14:23.941Z,28.20
2022-11-20T22:17:15.215Z,27.50
2022-11-20T22:20:09.539Z,27.20
2022-11-20T22:23:00.348Z,27.30
2022-11-20T22:25:50.863Z,27.10
2022-11-20T22:28:41.666Z,26.00
2022-11-20T22:31:32.715Z,26.60
2022-11-20T22:34:23.667Z,28.60
2022-11-20T22:37:15.152Z,29.00
2022-11-20T22:40:09.376Z,27.60
2022-11-20T22:42:59.960Z,29.50
2022-11-20T22:45:50.640Z,29.20
2022-11-20T22:48:42.409Z,29.10
2022-11-20T22:51:34.600Z,27.10
2022-11-20T22:54:25.460Z,28.70
2022-11-20T22:57:16.526Z,29.40
2022-11-20T23:00:11.925Z,26.10
2022-11-20T23:03:02.987Z,28.40
2022-11-20T23:05:53.639Z,28.50
2022-11-20T23:08:44.287Z,27.10
2022-11-20T23:11:35.277Z,27.90
2022-11-20T23:14:27.989Z,27.50
2022-11-20T23:17:18.751Z,27.60
2022-11-20T23:20:13.048Z,29.30
2022-11-20T23:23:03.695Z,30.60
2022-11-20T23:25:54.398Z,30.40
2022-11-20T23:28:45.543Z,33.20
2022-11-20T23:31:36.560Z,31.70
2022-11-20T23:34:27.430Z,30.80
2022-11-20T23:37:18.218Z,30.80
2022-11-20T23:40:11.935Z,31.40
2022-11-20T23:43:14.803Z,31.70
2022-11-20T23:46:05.685Z,30.50
2022-11-20T23:48:56.226Z,31.20
2022-11-20T23:51:46.902Z,30.30
2022-11-20T23:54:37.691Z,32.00
2022-11-20T23:57:28.297Z,29.50
